TUS weather

Tucson International Airport
Tucson, Arizona, United States

Public forecast

Using degrees Fahrenheit for public forecast. Weather courtesy of forecast.io.

Current aviation weather report (METAR) for Tucson International Airport

Retrieved 2019/11/21 16:53 UTC (46 minutes ago):

KTUS 211653Z 16008KT 10SM CLR 12/07 A2996 RMK AO2 SLP125 T01220072

Aviation forecast (TAF) for Tucson International Airport

Retrieved 2019/11/21 12:24 UTC (5 hours ago):

TAF KTUS 211123Z 2112/2212 23005KT P6SM VCSH SCT035 OVC045 FM211800 21008KT P6SM FEW040 SCT050 BKN080 FM212100 26008KT P6SM VCSH SCT040 BKN050 OVC080 FM220200 15005KT P6SM SCT050 BKN080